Time;durP1;ratioP1;P1;durP2;ratioP2;P2;SDS_P1;SDS_P2;PMS_P1;PMS_P2;Temp;Humidity;BMP_temperature;BMP_pressure;BME280_temperature;BME280_humidity;BME280_pressure;Samples;Min_cycle;Max_cycle;Signal;HPM_P1;HPM_P2
2024/01/19 00:00:04;;;;;;;4.20;3.03;;;;;;;-0.22;100.00;97309.38;5076579;28;20050;-71
2024/01/19 00:02:32;;;;;;;3.63;2.63;;;;;;;-0.19;100.00;97322.13;5092750;27;20039;-71
2024/01/19 00:04:58;;;;;;;3.33;2.53;;;;;;;-0.17;100.00;97321.00;5096342;27;20054;-72
2024/01/19 00:07:23;;;;;;;5.37;3.30;;;;;;;-0.12;100.00;97324.00;5130501;27;20051;-71
2024/01/19 00:09:49;;;;;;;3.77;3.00;;;;;;;-0.10;100.00;97314.25;5094644;27;20372;-72
2024/01/19 00:12:17;;;;;;;5.00;3.00;;;;;;;-0.04;100.00;97312.81;5097253;27;20062;-71
2024/01/19 00:14:42;;;;;;;5.13;2.73;;;;;;;-0.02;100.00;97319.50;5097085;27;20050;-71
2024/01/19 00:17:08;;;;;;;4.47;3.10;;;;;;;0.04;100.00;97320.72;5113984;27;20035;-70
2024/01/19 00:19:34;;;;;;;5.87;4.13;;;;;;;0.06;100.00;97328.41;5080393;28;20039;-71
2024/01/19 00:21:59;;;;;;;3.03;2.37;;;;;;;0.10;100.00;97324.50;5114110;28;20055;-70
2024/01/19 00:24:25;;;;;;;2.90;2.17;;;;;;;0.13;100.00;97322.44;5113984;27;20385;-72
2024/01/19 00:26:51;;;;;;;3.97;2.83;;;;;;;0.16;100.00;97329.13;5131381;27;20042;-69
2024/01/19 00:29:17;;;;;;;3.87;2.73;;;;;;;0.17;100.00;97331.59;5131485;27;20471;-72
2024/01/19 00:31:45;;;;;;;3.87;2.70;;;;;;;0.21;100.00;97322.50;5131079;27;20067;-72
2024/01/19 00:34:12;;;;;;;2.90;2.30;;;;;;;0.24;100.00;97321.38;5131363;28;20135;-72
2024/01/19 00:36:38;;;;;;;2.63;2.13;;;;;;;0.26;100.00;97322.06;5131860;27;20043;-72
2024/01/19 00:39:04;;;;;;;3.17;2.10;;;;;;;0.31;100.00;97317.22;5113970;28;20066;-71
2024/01/19 00:41:30;;;;;;;2.77;2.00;;;;;;;0.32;100.00;97318.84;5134115;27;20085;-72
2024/01/19 00:43:57;;;;;;;2.60;2.00;;;;;;;0.30;100.00;97318.16;5085148;27;20100;-71
2024/01/19 00:46:23;;;;;;;3.00;2.23;;;;;;;0.37;100.00;97322.63;5109335;27;20503;-71
2024/01/19 00:48:49;;;;;;;3.33;2.60;;;;;;;0.34;100.00;97324.75;5099561;27;20054;-73
2024/01/19 00:51:15;;;;;;;2.83;2.53;;;;;;;0.39;100.00;97328.53;5107964;27;20051;-71
2024/01/19 00:53:41;;;;;;;2.10;1.90;;;;;;;0.37;100.00;97327.03;5105458;27;20097;-72
2024/01/19 00:56:08;;;;;;;3.53;2.70;;;;;;;0.39;100.00;97322.47;5089787;27;20472;-71
2024/01/19 00:58:34;;;;;;;3.37;2.50;;;;;;;0.41;100.00;97329.19;5107863;27;20399;-71
2024/01/19 01:01:00;;;;;;;2.73;2.17;;;;;;;0.44;100.00;97341.13;5073737;27;20067;-72
2024/01/19 01:03:28;;;;;;;5.00;3.27;;;;;;;0.54;100.00;97340.06;5108421;27;20047;-71
2024/01/19 01:05:58;;;;;;;7.00;3.90;;;;;;;0.60;100.00;97343.88;5087630;27;20926;-72
2024/01/19 01:08:25;;;;;;;5.80;4.10;;;;;;;0.57;100.00;97357.22;5079257;27;20116;-71
2024/01/19 01:10:54;;;;;;;6.63;4.20;;;;;;;0.54;100.00;97353.09;5093370;28;20055;-71
2024/01/19 01:13:21;;;;;;;6.13;3.70;;;;;;;0.60;100.00;97354.31;5131939;27;20050;-70
2024/01/19 01:15:48;;;;;;;3.80;2.60;;;;;;;0.54;100.00;97349.69;5116540;27;20107;-72
2024/01/19 01:18:16;;;;;;;3.93;2.50;;;;;;;0.59;100.00;97352.66;5134201;27;20513;-70
2024/01/19 01:20:43;;;;;;;1.90;1.70;;;;;;;0.68;100.00;97355.19;5118424;27;20054;-69
2024/01/19 01:23:09;;;;;;;2.33;2.03;;;;;;;0.60;100.00;97349.88;5135753;27;20135;-70
2024/01/19 01:25:35;;;;;;;1.77;1.40;;;;;;;0.64;100.00;97355.63;5134928;27;20500;-70
2024/01/19 01:28:01;;;;;;;1.20;1.10;;;;;;;0.73;100.00;97365.16;5085101;27;20138;-69
2024/01/19 01:30:27;;;;;;;1.70;1.40;;;;;;;0.72;100.00;97355.69;5117687;27;20495;-70
2024/01/19 01:32:53;;;;;;;2.00;1.80;;;;;;;0.74;100.00;97353.78;5100661;27;20876;-69
2024/01/19 01:35:19;;;;;;;2.20;1.80;;;;;;;0.72;100.00;97356.53;5134301;27;20054;-69
2024/01/19 01:37:45;;;;;;;2.60;2.00;;;;;;;0.79;100.00;97364.56;5134118;27;20043;-70
2024/01/19 01:40:11;;;;;;;2.13;1.70;;;;;;;0.83;100.00;97371.13;5116973;27;20509;-70
2024/01/19 01:42:38;;;;;;;1.40;1.30;;;;;;;0.82;100.00;97356.41;5100110;27;20133;-71
2024/01/19 01:45:04;;;;;;;1.57;1.30;;;;;;;0.91;100.00;97361.53;5115868;27;20050;-72
2024/01/19 01:47:31;;;;;;;4.10;1.87;;;;;;;0.84;100.00;97351.88;5135531;27;20176;-74
2024/01/19 01:49:56;;;;;;;1.20;1.20;;;;;;;0.93;100.00;97358.78;5097355;28;20134;-72
2024/01/19 01:52:22;;;;;;;1.20;1.10;;;;;;;0.94;100.00;97360.44;5098808;27;20086;-72
2024/01/19 01:54:49;;;;;;;1.73;1.20;;;;;;;0.98;100.00;97365.19;5098878;27;20051;-71
2024/01/19 01:57:22;;;;;;;1.10;1.00;;;;;;;0.97;100.00;97365.34;5097943;27;20046;-71
2024/01/19 01:59:48;;;;;;;1.63;1.30;;;;;;;1.02;100.00;97363.06;5099506;27;20043;-72
2024/01/19 02:02:14;;;;;;;1.73;1.50;;;;;;;0.99;100.00;97366.81;5099645;27;20112;-72
2024/01/19 02:04:40;;;;;;;3.73;2.90;;;;;;;1.02;100.00;97355.22;5115048;27;20142;-71
2024/01/19 02:07:08;;;;;;;2.17;1.97;;;;;;;1.05;100.00;97354.94;5078032;28;20063;-71
2024/01/19 02:09:34;;;;;;;2.80;2.30;;;;;;;1.02;100.00;97365.69;5073017;28;20411;-71
2024/01/19 02:12:00;;;;;;;3.77;2.90;;;;;;;1.02;100.00;97365.69;5037862;28;20071;-70
2024/01/19 02:14:27;;;;;;;3.63;2.60;;;;;;;1.01;100.00;97371.91;5037315;28;20141;-70
2024/01/19 02:16:53;;;;;;;4.20;3.10;;;;;;;1.01;100.00;97377.13;5038137;28;20041;-71
2024/01/19 02:19:19;;;;;;;3.93;3.03;;;;;;;1.00;100.00;97372.88;5038266;28;20037;-70
2024/01/19 02:21:45;;;;;;;3.50;2.70;;;;;;;1.04;100.00;97366.38;5037991;28;20056;-72
2024/01/19 02:24:12;;;;;;;3.20;2.40;;;;;;;1.07;100.00;97376.50;5054255;28;20052;-73
2024/01/19 02:26:38;;;;;;;2.93;2.00;;;;;;;1.04;100.00;97379.44;5021466;28;20044;-71
2024/01/19 02:29:04;;;;;;;3.37;2.17;;;;;;;1.05;100.00;97388.91;5038147;28;20139;-71
2024/01/19 02:31:31;;;;;;;1.67;1.57;;;;;;;1.00;100.00;97378.91;5021113;28;20381;-71
2024/01/19 02:33:57;;;;;;;2.77;2.20;;;;;;;1.05;100.00;97383.66;5037410;28;20040;-71
2024/01/19 02:36:23;;;;;;;2.13;1.60;;;;;;;1.04;100.00;97395.09;5037996;28;20540;-71
2024/01/19 02:38:49;;;;;;;1.50;1.40;;;;;;;1.04;100.00;97390.72;5070611;28;20082;-71
2024/01/19 02:41:14;;;;;;;1.20;1.10;;;;;;;1.07;100.00;97413.09;5111987;28;20055;-71
2024/01/19 02:43:40;;;;;;;1.10;1.00;;;;;;;1.07;100.00;97416.53;5112323;28;20146;-71
2024/01/19 02:46:07;;;;;;;0.97;0.97;;;;;;;1.11;100.00;97419.66;5095244;28;20036;-72
2024/01/19 02:48:32;;;;;;;1.33;1.23;;;;;;;1.12;100.00;97411.66;5096344;28;20055;-72
2024/01/19 02:50:58;;;;;;;1.20;1.10;;;;;;;1.13;100.00;97421.16;5079168;28;20433;-72
2024/01/19 02:53:24;;;;;;;1.40;1.30;;;;;;;1.15;100.00;97434.06;5079288;28;20429;-73
2024/01/19 02:55:50;;;;;;;1.10;1.00;;;;;;;1.16;100.00;97425.25;5113165;28;20044;-72
2024/01/19 02:58:15;;;;;;;1.37;1.27;;;;;;;1.19;100.00;97431.00;5112454;28;20052;-72
2024/01/19 03:00:41;;;;;;;1.23;1.10;;;;;;;1.23;100.00;97436.75;5112684;28;20077;-72
2024/01/19 03:03:08;;;;;;;1.70;1.60;;;;;;;1.25;100.00;97440.81;5079136;28;20039;-74
2024/01/19 03:05:34;;;;;;;1.50;1.40;;;;;;;1.24;100.00;97440.97;5133543;27;20047;-72
2024/01/19 03:08:00;;;;;;;1.93;1.40;;;;;;;1.30;100.00;97450.81;5133104;27;20039;-73
2024/01/19 03:10:26;;;;;;;2.30;1.50;;;;;;;1.31;100.00;97452.44;5098845;27;20057;-72
2024/01/19 03:12:52;;;;;;;1.77;1.60;;;;;;;1.32;100.00;97452.31;5115506;27;20035;-72
2024/01/19 03:15:18;;;;;;;1.30;1.20;;;;;;;1.34;100.00;97449.53;5098368;27;20035;-72
2024/01/19 03:17:44;;;;;;;1.20;1.10;;;;;;;1.33;100.00;97453.97;5115783;27;20043;-72
2024/01/19 03:20:10;;;;;;;1.43;1.33;;;;;;;1.37;100.00;97446.59;5115413;27;20062;-72
2024/01/19 03:22:37;;;;;;;2.00;1.47;;;;;;;1.36;100.00;97456.25;5116129;27;20038;-72
2024/01/19 03:25:04;;;;;;;1.30;1.20;;;;;;;1.37;100.00;97460.50;5116346;27;20058;-71
2024/01/19 03:27:30;;;;;;;1.03;1.00;;;;;;;1.38;100.00;97458.72;5115807;27;20152;-72
2024/01/19 03:29:56;;;;;;;0.97;0.97;;;;;;;1.38;100.00;97463.97;5081630;27;20043;-72
2024/01/19 03:32:22;;;;;;;1.40;1.30;;;;;;;1.41;100.00;97461.88;5081136;27;20050;-73
2024/01/19 03:34:49;;;;;;;1.83;1.57;;;;;;;1.43;100.00;97465.13;5115207;27;20062;-72
2024/01/19 03:37:15;;;;;;;1.40;1.30;;;;;;;1.43;100.00;97482.63;5114775;27;20386;-71
2024/01/19 03:39:40;;;;;;;1.87;1.70;;;;;;;1.44;100.00;97471.19;5098171;27;20049;-71
2024/01/19 03:42:09;;;;;;;1.67;1.50;;;;;;;1.42;100.00;97473.13;5098693;27;20134;-72
2024/01/19 03:44:35;;;;;;;3.47;2.70;;;;;;;1.44;100.00;97473.81;5132601;27;20053;-71
2024/01/19 03:47:01;;;;;;;2.63;1.90;;;;;;;1.44;100.00;97469.41;5114916;27;20129;-72
2024/01/19 03:49:27;;;;;;;2.17;1.53;;;;;;;1.45;100.00;97467.59;5094325;28;20035;-72
2024/01/19 03:52:00;;;;;;;1.40;1.30;;;;;;;1.57;100.00;97472.41;5111288;28;20036;-72
2024/01/19 03:54:26;;;;;;;1.97;1.30;;;;;;;1.45;100.00;97468.41;5077397;28;20061;-72
2024/01/19 03:56:53;;;;;;;1.53;1.40;;;;;;;1.50;100.00;97481.03;5109218;27;20447;-72
2024/01/19 03:59:19;;;;;;;1.40;1.30;;;;;;;1.46;100.00;97490.16;5114327;27;20341;-72
2024/01/19 04:01:44;;;;;;;4.27;2.80;;;;;;;1.47;100.00;97503.09;5132289;27;20035;-71
2024/01/19 04:04:10;;;;;;;3.13;2.60;;;;;;;1.47;100.00;97510.09;5114499;27;20050;-71
2024/01/19 04:06:36;;;;;;;3.30;2.50;;;;;;;1.46;100.00;97503.25;5114581;27;20035;-72
2024/01/19 04:09:02;;;;;;;3.73;2.67;;;;;;;1.46;100.00;97511.09;5080755;27;20064;-71
2024/01/19 04:11:30;;;;;;;2.73;2.13;;;;;;;1.42;100.00;97505.34;5067004;27;20343;-70
2024/01/19 04:13:56;;;;;;;2.90;2.23;;;;;;;1.43;100.00;97506.97;5097277;28;20035;-74
2024/01/19 04:16:23;;;;;;;2.10;1.70;;;;;;;1.43;100.00;97516.63;5092018;28;20124;-75
2024/01/19 04:18:48;;;;;;;1.60;1.50;;;;;;;1.43;100.00;97516.63;5072997;28;20428;-74
2024/01/19 04:21:14;;;;;;;1.60;1.50;;;;;;;1.42;100.00;97514.97;5065482;28;20055;-76
2024/01/19 04:23:40;;;;;;;1.67;1.47;;;;;;;1.43;100.00;97529.69;5085429;28;20055;-75
2024/01/19 04:26:06;;;;;;;2.13;1.70;;;;;;;1.43;100.00;97522.66;5077373;28;20062;-74
2024/01/19 04:28:32;;;;;;;3.27;2.50;;;;;;;1.43;100.00;97527.88;5077592;28;20223;-74
2024/01/19 04:31:00;;;;;;;3.13;2.60;;;;;;;1.41;100.00;97548.16;5076038;28;20065;-77
2024/01/19 04:33:26;;;;;;;2.20;1.60;;;;;;;1.43;100.00;97558.47;5078084;28;20142;-74
2024/01/19 04:35:53;;;;;;;3.57;2.47;;;;;;;1.41;100.00;97563.00;5095210;28;20035;-73
2024/01/19 04:38:20;;;;;;;5.07;3.40;;;;;;;1.54;100.00;97573.88;5078273;28;20098;-75
2024/01/19 04:40:46;;;;;;;5.87;4.07;;;;;;;1.43;100.00;97576.78;5056269;28;20039;-75
2024/01/19 04:43:12;;;;;;;6.07;4.10;;;;;;;1.43;100.00;97582.00;5058097;28;20054;-74
2024/01/19 04:45:59;;;;;;;6.30;4.67;;;;;;;1.58;100.00;97580.47;5073970;28;20086;-76
2024/01/19 04:48:28;;;;;;;6.37;4.10;;;;;;;1.40;100.00;97590.13;5077752;28;20069;-74
2024/01/19 04:50:54;;;;;;;5.23;3.30;;;;;;;1.37;100.00;97595.66;5089372;28;20138;-75
2024/01/19 04:53:22;;;;;;;4.93;3.10;;;;;;;1.34;100.00;97596.78;5075316;28;20059;-76
2024/01/19 04:55:47;;;;;;;2.93;2.30;;;;;;;1.34;100.00;97595.94;5073678;28;20108;-76
2024/01/19 04:58:13;;;;;;;3.97;3.20;;;;;;;1.36;100.00;97594.00;5056502;28;20104;-72
2024/01/19 05:00:40;;;;;;;2.97;2.40;;;;;;;1.34;100.00;97603.78;5089908;28;20419;-74
2024/01/19 05:03:06;;;;;;;5.03;3.33;;;;;;;1.36;100.00;97609.72;5058097;28;20039;-75
2024/01/19 05:05:36;;;;;;;4.43;3.17;;;;;;;1.36;100.00;97609.72;5056893;28;20051;-75
2024/01/19 05:08:04;;;;;;;5.37;3.40;;;;;;;1.37;100.00;97606.94;5106947;28;20146;-75
2024/01/19 05:10:32;;;;;;;3.70;2.80;;;;;;;1.32;100.00;97611.78;5074298;28;20349;-74
2024/01/19 05:12:58;;;;;;;5.70;3.87;;;;;;;1.29;100.00;97608.69;5057221;28;20047;-75
2024/01/19 05:15:26;;;;;;;5.50;3.40;;;;;;;1.35;100.00;97621.94;5060049;28;20044;-77
2024/01/19 05:17:52;;;;;;;6.53;4.17;;;;;;;1.30;100.00;97618.97;5093700;28;20531;-76
2024/01/19 05:20:20;;;;;;;4.60;3.13;;;;;;;1.38;100.00;97632.09;5094347;28;20044;-78
2024/01/19 05:22:48;;;;;;;6.47;4.50;;;;;;;1.32;100.00;97617.03;5076162;28;20073;-74
2024/01/19 05:25:18;;;;;;;3.60;2.70;;;;;;;1.41;100.00;97633.63;5075872;28;20401;-76
2024/01/19 05:27:45;;;;;;;3.87;2.87;;;;;;;1.37;100.00;97627.03;5094595;28;20044;-76
2024/01/19 05:30:13;;;;;;;3.90;2.57;;;;;;;1.27;100.00;97624.50;5080050;28;20039;-74
2024/01/19 05:32:40;;;;;;;3.77;2.70;;;;;;;1.31;100.00;97627.63;5080787;28;20055;-77
2024/01/19 05:35:06;;;;;;;4.23;3.27;;;;;;;1.29;100.00;97633.00;5063497;28;20052;-76
2024/01/19 05:37:33;;;;;;;5.67;3.77;;;;;;;1.28;100.00;97648.84;5079524;28;20036;-73
2024/01/19 05:40:03;;;;;;;4.53;3.40;;;;;;;1.26;100.00;97650.81;5062492;28;20039;-71
2024/01/19 05:42:29;;;;;;;5.63;3.78;;;;;;;1.28;100.00;97664.53;5058720;28;20040;-73
2024/01/19 05:44:55;;;;;;;5.40;3.50;;;;;;;1.22;100.00;97670.34;5076007;28;20039;-72
2024/01/19 05:47:21;;;;;;;4.80;3.70;;;;;;;1.22;100.00;97670.34;5058113;28;20059;-73
2024/01/19 05:49:49;;;;;;;8.10;4.50;;;;;;;1.22;100.00;97681.63;5091804;28;20510;-70
2024/01/19 05:52:15;;;;;;;6.17;4.43;;;;;;;1.18;100.00;97682.09;5041429;28;20044;-71
2024/01/19 05:54:40;;;;;;;7.60;4.70;;;;;;;1.19;100.00;97692.41;5041399;28;20051;-70
2024/01/19 05:57:08;;;;;;;6.30;4.43;;;;;;;1.17;100.00;97696.13;5057631;28;20568;-73
2024/01/19 05:59:38;;;;;;;6.73;4.00;;;;;;;1.25;100.00;97701.44;5074321;28;20143;-73
2024/01/19 06:02:06;;;;;;;7.40;4.30;;;;;;;1.27;100.00;97705.56;5041564;28;20051;-71
2024/01/19 06:04:33;;;;;;;6.43;4.27;;;;;;;1.16;100.00;97702.31;5074490;28;20036;-71
2024/01/19 06:07:00;;;;;;;5.30;3.77;;;;;;;1.16;100.00;97715.38;5040795;28;20077;-70
2024/01/19 06:09:25;;;;;;;6.53;4.50;;;;;;;1.12;100.00;97711.44;5073803;28;20051;-72
2024/01/19 06:11:51;;;;;;;5.43;3.83;;;;;;;1.10;100.00;97708.13;5040199;28;20108;-71
2024/01/19 06:14:17;;;;;;;4.73;3.33;;;;;;;1.12;100.00;97714.03;5072190;28;20051;-73
2024/01/19 06:16:43;;;;;;;5.53;4.00;;;;;;;1.09;100.00;97719.56;5078312;28;20044;-71
2024/01/19 06:19:09;;;;;;;3.20;2.53;;;;;;;1.09;100.00;97724.78;5078883;28;20043;-71
2024/01/19 06:21:34;;;;;;;4.77;3.70;;;;;;;1.06;100.00;97720.66;5078887;28;20043;-71
2024/01/19 06:24:00;;;;;;;5.10;3.47;;;;;;;1.09;100.00;97730.03;5095166;28;20458;-72
2024/01/19 06:26:32;;;;;;;5.17;3.50;;;;;;;1.06;100.00;97749.41;5112557;28;20172;-71
2024/01/19 06:29:00;;;;;;;3.33;2.73;;;;;;;1.17;100.00;97746.59;5095162;28;20054;-73
2024/01/19 06:31:26;;;;;;;5.27;3.90;;;;;;;1.05;100.00;97757.41;5062547;28;20129;-71
2024/01/19 06:33:52;;;;;;;6.60;4.30;;;;;;;0.99;100.00;97744.91;5078295;28;20055;-71
2024/01/19 06:36:17;;;;;;;5.97;4.40;;;;;;;1.02;100.00;97758.53;5112092;28;20495;-71
2024/01/19 06:38:43;;;;;;;5.40;3.80;;;;;;;1.03;100.00;97761.97;5077877;28;20047;-71
2024/01/19 06:41:16;;;;;;;4.10;2.93;;;;;;;1.17;100.00;97766.72;5095222;28;20032;-71
2024/01/19 06:43:42;;;;;;;5.13;4.17;;;;;;;0.99;100.00;97763.19;5061919;28;20078;-70
2024/01/19 06:46:08;;;;;;;8.47;4.37;;;;;;;1.03;100.00;97769.81;5095061;28;20133;-72
2024/01/19 06:48:33;;;;;;;7.57;4.97;;;;;;;1.02;100.00;97791.66;5112579;28;20494;-72
2024/01/19 06:50:59;;;;;;;6.17;4.50;;;;;;;1.00;100.00;97794.41;5095468;28;20149;-70
2024/01/19 06:53:27;;;;;;;7.23;4.30;;;;;;;1.03;100.00;97801.16;5077653;28;20054;-70
2024/01/19 06:55:53;;;;;;;4.73;3.50;;;;;;;1.00;100.00;97793.63;5114686;27;20043;-71
2024/01/19 06:58:19;;;;;;;5.77;4.13;;;;;;;1.02;100.00;97802.13;5076347;28;20051;-70
2024/01/19 07:00:44;;;;;;;6.13;4.00;;;;;;;1.03;100.00;97807.19;5076343;28;20535;-69
2024/01/19 07:03:10;;;;;;;5.53;3.90;;;;;;;1.04;100.00;97808.03;5093313;28;20058;-72
2024/01/19 07:05:36;;;;;;;6.27;4.60;;;;;;;1.04;100.00;97811.47;5093886;28;20464;-71
2024/01/19 07:08:04;;;;;;;4.20;3.00;;;;;;;1.06;100.00;97811.34;5060782;28;20071;-70
2024/01/19 07:10:30;;;;;;;3.40;2.80;;;;;;;1.04;100.00;97818.47;5076881;28;20057;-70
2024/01/19 07:12:56;;;;;;;2.77;2.20;;;;;;;1.04;100.00;97826.31;5092715;28;20073;-70
2024/01/19 07:15:22;;;;;;;3.13;2.57;;;;;;;1.06;100.00;97813.94;5093776;28;20062;-71
2024/01/19 07:17:49;;;;;;;4.30;3.30;;;;;;;1.08;100.00;97822.44;5033241;28;20076;-70
2024/01/19 07:20:16;;;;;;;6.03;3.90;;;;;;;1.04;100.00;97819.31;5016274;28;20053;-71
2024/01/19 07:22:44;;;;;;;6.10;3.90;;;;;;;1.06;100.00;97827.81;5032519;28;20049;-70
2024/01/19 07:25:10;;;;;;;4.97;3.50;;;;;;;1.05;100.00;97828.78;5032526;28;20205;-70
2024/01/19 07:27:38;;;;;;;4.03;2.50;;;;;;;1.10;100.00;97833.59;5023642;28;20115;-70
2024/01/19 07:30:05;;;;;;;2.87;2.20;;;;;;;1.12;100.00;97829.06;5069303;28;20051;-70
2024/01/19 07:32:32;;;;;;;3.40;2.23;;;;;;;1.06;100.00;97822.59;5055933;28;20391;-70
2024/01/19 07:34:58;;;;;;;3.07;2.50;;;;;;;1.12;100.00;97835.09;5038679;28;20036;-70
2024/01/19 07:37:24;;;;;;;2.93;2.07;;;;;;;1.14;100.00;97848.00;5072520;28;20052;-70
2024/01/19 07:39:50;;;;;;;3.67;3.00;;;;;;;1.16;100.00;97852.16;5071235;28;20037;-71
2024/01/19 07:42:15;;;;;;;3.40;2.60;;;;;;;1.16;100.00;97849.53;5072045;28;20190;-71
2024/01/19 07:44:41;;;;;;;4.33;3.33;;;;;;;1.18;100.00;97852.00;5055685;28;20052;-71
2024/01/19 07:47:07;;;;;;;4.93;3.37;;;;;;;1.19;100.00;97854.47;5040236;28;20139;-71
2024/01/19 07:49:33;;;;;;;4.43;3.30;;;;;;;1.20;100.00;97861.34;5110728;27;20058;-71
2024/01/19 07:51:59;;;;;;;5.07;3.40;;;;;;;1.23;100.00;97861.06;5113432;27;20042;-70
2024/01/19 07:54:25;;;;;;;7.40;4.13;;;;;;;1.24;100.00;97862.72;5114001;27;20066;-71
2024/01/19 07:56:51;;;;;;;5.90;3.93;;;;;;;1.26;100.00;97871.22;5097049;27;20086;-71
2024/01/19 07:59:17;;;;;;;6.73;4.17;;;;;;;1.31;100.00;97868.19;5114031;27;20445;-72
2024/01/19 08:01:44;;;;;;;3.57;3.10;;;;;;;1.30;100.00;97875.22;5097134;27;20035;-71
2024/01/19 08:04:10;;;;;;;3.50;3.00;;;;;;;1.25;100.00;97892.28;5097559;27;20111;-71
2024/01/19 08:06:37;;;;;;;3.83;3.10;;;;;;;1.33;100.00;97888.00;5098614;27;20054;-71
2024/01/19 08:09:03;;;;;;;5.17;3.73;;;;;;;1.41;100.00;97895.13;5097780;27;20192;-72
2024/01/19 08:11:34;;;;;;;4.03;3.17;;;;;;;1.54;100.00;97896.44;5094325;28;20046;-75
2024/01/19 08:14:01;;;;;;;3.53;3.00;;;;;;;1.50;100.00;97904.72;5060701;28;20036;-69
2024/01/19 08:16:27;;;;;;;6.33;3.33;;;;;;;1.52;100.00;97911.44;5076638;28;20518;-73
2024/01/19 08:18:56;;;;;;;5.13;3.70;;;;;;;1.54;100.00;97913.91;5079287;28;20050;-74
2024/01/19 08:21:23;;;;;;;5.30;3.67;;;;;;;1.52;100.00;97913.25;5072742;28;20052;-73
2024/01/19 08:23:49;;;;;;;4.67;3.30;;;;;;;1.60;100.00;97913.34;5036832;28;20116;-74
2024/01/19 08:26:21;;;;;;;4.93;3.70;;;;;;;1.68;100.00;97923.91;5076824;28;20043;-74
2024/01/19 08:28:48;;;;;;;5.47;3.83;;;;;;;1.57;100.00;97927.56;5110360;28;20093;-73
2024/01/19 08:31:14;;;;;;;5.47;4.27;;;;;;;1.57;100.00;97929.34;5059796;28;20376;-75
2024/01/19 08:33:42;;;;;;;5.40;3.90;;;;;;;1.57;100.00;97926.72;5042854;28;20035;-73
2024/01/19 08:36:08;;;;;;;5.00;3.83;;;;;;;1.54;100.00;97937.47;5055787;28;20047;-75
2024/01/19 08:38:38;;;;;;;6.23;4.00;;;;;;;1.53;100.00;97941.06;5049337;28;20512;-74
2024/01/19 08:41:07;;;;;;;4.13;3.20;;;;;;;1.60;100.00;97934.28;4999469;28;20037;-77
2024/01/19 08:43:33;;;;;;;5.07;3.83;;;;;;;1.54;100.00;97933.06;5012247;28;20100;-73
2024/01/19 08:46:00;;;;;;;4.93;3.77;;;;;;;1.51;100.00;97942.97;5012925;28;20057;-77
2024/01/19 08:48:26;;;;;;;5.47;4.33;;;;;;;1.49;100.00;97945.75;4979161;28;20049;-73
2024/01/19 08:50:53;;;;;;;6.33;4.20;;;;;;;1.55;100.00;97949.59;5011713;28;20045;-74
2024/01/19 08:53:19;;;;;;;5.67;4.23;;;;;;;1.50;100.00;97951.81;4998225;28;20078;-76
2024/01/19 08:55:49;;;;;;;6.90;4.67;;;;;;;1.60;100.00;97960.44;5019486;28;20036;-74
2024/01/19 08:58:15;;;;;;;6.33;4.97;;;;;;;1.52;100.00;97966.38;5032704;28;20080;-75
2024/01/19 09:00:41;;;;;;;6.23;4.60;;;;;;;1.60;100.00;97963.88;5035307;28;20148;-74
2024/01/19 09:03:10;;;;;;;6.47;3.97;;;;;;;1.58;100.00;97967.63;5031400;28;20487;-73
2024/01/19 09:05:38;;;;;;;5.63;3.90;;;;;;;1.57;100.00;97976.41;5011889;28;20057;-73
2024/01/19 09:08:04;;;;;;;5.37;3.87;;;;;;;1.98;100.00;97973.38;4979169;28;20060;-72
2024/01/19 09:10:32;;;;;;;5.20;3.80;;;;;;;2.04;100.00;97977.22;4963814;28;20456;-72
2024/01/19 09:12:59;;;;;;;4.23;3.40;;;;;;;2.08;100.00;97986.41;4963465;28;20160;-74
2024/01/19 09:15:26;;;;;;;5.30;3.60;;;;;;;1.77;100.00;97964.91;5007369;28;20061;-74
2024/01/19 09:17:54;;;;;;;5.40;3.90;;;;;;;1.71;100.00;97966.31;4982672;28;20053;-72
2024/01/19 09:20:24;;;;;;;4.75;3.20;;;;;;;1.64;100.00;97962.66;4968777;28;20075;-75
2024/01/19 09:22:51;;;;;;;3.90;3.27;;;;;;;1.67;100.00;97979.84;4999072;28;20053;-73
2024/01/19 09:25:19;;;;;;;3.10;2.50;;;;;;;1.65;100.00;97997.47;4952701;28;20066;-75
2024/01/19 09:27:47;;;;;;;5.53;3.97;;;;;;;1.78;100.00;97998.00;4938339;29;20046;-72
2024/01/19 09:30:17;;;;;;;4.68;3.60;;;;;;;1.64;100.00;97986.19;4946402;28;20158;-76
2024/01/19 09:32:43;;;;;;;8.03;4.60;;;;;;;1.61;100.00;98001.34;4950208;28;20043;-74
2024/01/19 09:35:14;;;;;;;6.13;4.27;;;;;;;1.72;100.00;98007.22;4909339;29;20527;-73
2024/01/19 09:37:41;;;;;;;5.95;3.90;;;;;;;1.71;100.00;98004.75;4922897;29;20499;-75
2024/01/19 09:40:10;;;;;;;5.97;4.10;;;;;;;1.71;100.00;97999.50;4905966;29;20066;-74
2024/01/19 09:42:39;;;;;;;5.93;4.10;;;;;;;1.73;100.00;98011.50;4902732;29;20169;-74
2024/01/19 09:45:17;;;;;;;7.23;4.10;;;;;;;1.78;100.00;98024.97;4903392;29;20122;-74
2024/01/19 09:48:08;;;;;;;6.00;4.07;;;;;;;1.77;100.00;98027.72;4961017;28;20084;-76
2024/01/19 09:50:36;;;;;;;6.67;4.60;;;;;;;1.73;100.00;98028.97;4959888;28;20554;-76
2024/01/19 09:53:23;;;;;;;7.70;4.70;;;;;;;1.82;100.00;98033.34;4944583;28;20073;-72
2024/01/19 09:55:49;;;;;;;8.80;4.80;;;;;;;1.67;100.00;98026.94;4922146;28;20136;-73
2024/01/19 09:58:20;;;;;;;7.93;5.17;;;;;;;1.75;100.00;98030.47;4979585;28;20065;-75
2024/01/19 10:00:51;;;;;;;7.28;4.80;;;;;;;1.62;100.00;98031.75;4995247;28;20064;-72
2024/01/19 10:03:17;;;;;;;6.83;4.77;;;;;;;1.63;100.00;98036.84;4975781;28;20502;-76
2024/01/19 10:05:44;;;;;;;6.73;4.93;;;;;;;1.58;100.00;98033.03;4975930;28;20445;-73
2024/01/19 10:08:13;;;;;;;6.17;4.30;;;;;;;1.69;100.00;98046.75;4959923;28;20557;-71
2024/01/19 10:10:44;;;;;;;9.38;5.05;;;;;;;1.65;100.00;98041.94;4940137;29;20212;-74
2024/01/19 10:13:11;;;;;;;7.63;4.47;;;;;;;1.57;100.00;98041.81;4967890;28;20124;-73
2024/01/19 10:15:36;;;;;;;6.20;4.50;;;;;;;1.57;100.00;98057.50;4977870;28;20065;-73
2024/01/19 10:18:05;;;;;;;8.50;4.23;;;;;;;1.60;100.00;98076.38;5010900;28;20058;-73
2024/01/19 10:20:32;;;;;;;4.50;3.67;;;;;;;1.61;100.00;98075.41;4994621;28;20808;-74
2024/01/19 10:23:21;;;;;;;5.17;3.70;;;;;;;1.78;100.00;98081.72;4994500;28;20085;-73
2024/01/19 10:25:48;;;;;;;5.40;3.77;;;;;;;1.65;100.00;98086.41;4997426;28;20062;-72
2024/01/19 10:28:35;;;;;;;5.47;4.27;;;;;;;1.78;100.00;98092.19;4979805;28;20083;-72
2024/01/19 10:31:18;;;;;;;5.07;3.70;;;;;;;1.78;100.00;98094.81;5055010;28;20090;-72
2024/01/19 10:33:52;;;;;;;4.57;3.47;;;;;;;1.73;100.00;98097.84;5036695;28;20108;-72
2024/01/19 10:36:19;;;;;;;4.77;3.43;;;;;;;1.65;100.00;98100.34;5052942;28;20110;-73
2024/01/19 10:38:45;;;;;;;4.20;3.33;;;;;;;1.64;100.00;98100.47;5019913;28;20055;-72
2024/01/19 10:41:24;;;;;;;4.97;4.03;;;;;;;1.76;100.00;98107.19;5022508;28;20113;-72
2024/01/19 10:43:50;;;;;;;4.77;3.60;;;;;;;1.63;100.00;98089.19;5108023;28;20035;-74
2024/01/19 10:46:23;;;;;;;5.63;4.00;;;;;;;1.72;100.00;98109.25;5077932;28;20068;-72
2024/01/19 10:48:52;;;;;;;6.10;3.83;;;;;;;1.62;100.00;98118.94;5088449;27;20068;-74
2024/01/19 10:51:20;;;;;;;5.77;4.00;;;;;;;1.71;100.00;98107.63;5131765;27;20050;-73
2024/01/19 10:53:51;;;;;;;5.53;3.77;;;;;;;1.59;100.00;98103.50;5114335;27;20039;-74
2024/01/19 10:56:20;;;;;;;;;;;;;;;1.78;100.00;98113.13;5114330;27;20055;-75
2024/01/19 10:58:47;;;;;;;5.33;3.30;;;;;;;1.59;100.00;98121.81;5095886;27;19930;-74
2024/01/19 11:01:16;;;;;;;4.80;2.70;;;;;;;1.63;100.00;98119.75;5114194;27;20129;-71
2024/01/19 11:03:43;;;;;;;5.93;3.73;;;;;;;1.63;100.00;98127.59;5092796;27;20067;-72
2024/01/19 11:06:18;;;;;;;5.70;3.97;;;;;;;1.68;100.00;98135.84;5115182;27;20039;-76
2024/01/19 11:08:43;;;;;;;5.47;3.47;;;;;;;1.63;100.00;98141.50;5062826;28;20626;-72
2024/01/19 11:11:10;;;;;;;4.53;3.20;;;;;;;1.64;100.00;98131.88;5083975;28;20052;-70
2024/01/19 11:13:42;;;;;;;5.47;3.70;;;;;;;1.73;100.00;98147.56;5039034;28;20181;-69
2024/01/19 11:16:12;;;;;;;5.03;3.70;;;;;;;1.72;100.00;98155.56;5072050;28;20042;-69
2024/01/19 11:18:38;;;;;;;4.10;2.90;;;;;;;1.65;100.00;98157.91;5030384;28;20057;-71
2024/01/19 11:21:08;;;;;;;3.90;2.90;;;;;;;1.63;100.00;98145.91;5032655;28;20457;-68
2024/01/19 11:23:34;;;;;;;4.47;3.40;;;;;;;1.73;100.00;98158.03;5032688;28;20056;-69
2024/01/19 11:26:25;;;;;;;3.57;2.80;;;;;;;1.87;100.00;98166.41;5032701;28;20065;-68
2024/01/19 11:28:54;;;;;;;;;;;;;;;1.97;100.00;98170.66;5000587;28;20061;-70
2024/01/19 11:31:23;;;;;;;3.13;2.53;;;;;;;1.88;100.00;98170.69;5017528;28;19921;-72
2024/01/19 11:33:49;;;;;;;3.13;2.50;;;;;;;1.83;100.00;98170.28;5016407;28;20122;-72